createdAt,value
2023-08-15T00:00:29.609Z,1006.475
2023-08-15T00:00:59.640Z,1006.468
2023-08-15T00:01:29.599Z,1006.483
2023-08-15T00:01:59.606Z,1006.502
2023-08-15T00:02:29.634Z,1006.497
2023-08-15T00:02:59.638Z,1006.48
2023-08-15T00:03:29.712Z,1006.467
2023-08-15T00:03:59.649Z,1006.465
2023-08-15T00:04:29.603Z,1006.451
2023-08-15T00:04:59.592Z,1006.432
2023-08-15T00:05:29.607Z,1006.429
2023-08-15T00:05:59.601Z,1006.435
2023-08-15T00:06:29.611Z,1006.446
2023-08-15T00:06:59.606Z,1006.446
2023-08-15T00:07:29.597Z,1006.442
2023-08-15T00:07:59.599Z,1006.448
2023-08-15T00:08:29.597Z,1006.437
2023-08-15T00:08:59.592Z,1006.441
2023-08-15T00:09:29.595Z,1006.442
2023-08-15T00:09:59.594Z,1006.434
2023-08-15T00:10:29.596Z,1006.428
2023-08-15T00:10:59.601Z,1006.422
2023-08-15T00:11:29.595Z,1006.417
2023-08-15T00:11:59.592Z,1006.405
2023-08-15T00:12:29.594Z,1006.402
2023-08-15T00:12:59.592Z,1006.393
2023-08-15T00:13:29.593Z,1006.39
2023-08-15T00:13:59.612Z,1006.375
2023-08-15T00:14:29.593Z,1006.366
2023-08-15T00:14:59.594Z,1006.36
2023-08-15T00:15:29.598Z,1006.37
2023-08-15T00:15:59.600Z,1006.36
2023-08-15T00:16:29.658Z,1006.365
2023-08-15T00:16:59.643Z,1006.37
2023-08-15T00:17:29.629Z,1006.382
2023-08-15T00:17:59.644Z,1006.385
2023-08-15T00:18:29.599Z,1006.382
2023-08-15T00:18:59.606Z,1006.38
2023-08-15T00:19:29.602Z,1006.366
2023-08-15T00:19:59.607Z,1006.353
2023-08-15T00:20:29.597Z,1006.335
2023-08-15T00:20:59.596Z,1006.316
2023-08-15T00:21:29.598Z,1006.302
2023-08-15T00:21:59.599Z,1006.291
2023-08-15T00:22:29.598Z,1006.281
2023-08-15T00:22:59.610Z,1006.277
2023-08-15T00:23:29.600Z,1006.26
2023-08-15T00:23:59.612Z,1006.253
2023-08-15T00:24:29.602Z,1006.243
2023-08-15T00:24:59.603Z,1006.244
2023-08-15T00:25:29.605Z,1006.234
2023-08-15T00:25:59.609Z,1006.23
2023-08-15T00:26:29.600Z,1006.228
2023-08-15T00:26:59.608Z,1006.221
2023-08-15T00:27:29.616Z,1006.234
2023-08-15T00:27:59.613Z,1006.241
2023-08-15T00:28:29.601Z,1006.246
2023-08-15T00:28:59.603Z,1006.246
2023-08-15T00:29:29.602Z,1006.255
2023-08-15T00:29:59.618Z,1006.243
2023-08-15T00:30:29.604Z,1006.243
2023-08-15T00:30:59.651Z,1006.233
2023-08-15T00:31:29.684Z,1006.241
2023-08-15T00:31:59.610Z,1006.249
2023-08-15T00:32:29.626Z,1006.251
2023-08-15T00:32:59.645Z,1006.254
2023-08-15T00:33:29.604Z,1006.25
2023-08-15T00:33:59.611Z,1006.245
2023-08-15T00:34:29.620Z,1006.238
2023-08-15T00:34:59.626Z,1006.235
2023-08-15T00:35:29.612Z,1006.222
2023-08-15T00:35:59.615Z,1006.203
2023-08-15T00:36:29.623Z,1006.187
2023-08-15T00:36:59.627Z,1006.162
2023-08-15T00:37:29.614Z,1006.147
2023-08-15T00:37:59.612Z,1006.139
2023-08-15T00:38:29.612Z,1006.137
2023-08-15T00:38:59.616Z,1006.127
2023-08-15T00:39:29.611Z,1006.119
2023-08-15T00:39:59.610Z,1006.12
2023-08-15T00:40:29.633Z,1006.109
2023-08-15T00:40:59.623Z,1006.093
2023-08-15T00:41:29.610Z,1006.095
2023-08-15T00:41:59.617Z,1006.086
2023-08-15T00:42:29.605Z,1006.087
2023-08-15T00:42:59.610Z,1006.088
2023-08-15T00:43:29.615Z,1006.085
2023-08-15T00:43:59.740Z,1006.074
2023-08-15T00:44:29.611Z,1006.073
2023-08-15T00:44:59.616Z,1006.077
2023-08-15T00:45:29.610Z,1006.091
2023-08-15T00:45:59.629Z,1006.09
2023-08-15T00:46:29.646Z,1006.083
2023-08-15T00:46:59.615Z,1006.1
2023-08-15T00:47:29.636Z,1006.104
2023-08-15T00:47:59.701Z,1006.092
2023-08-15T00:48:29.612Z,1006.084
2023-08-15T00:48:59.616Z,1006.078
2023-08-15T00:49:29.618Z,1006.068
2023-08-15T00:49:59.611Z,1006.064
2023-08-15T00:50:29.622Z,1006.065
2023-08-15T00:50:59.621Z,1006.059
2023-08-15T00:51:29.614Z,1006.047
2023-08-15T00:51:59.617Z,1006.044
2023-08-15T00:52:29.619Z,1006.039
2023-08-15T00:52:59.618Z,1006.04
2023-08-15T00:53:29.618Z,1006.039
2023-08-15T00:53:59.619Z,1006.047
2023-08-15T00:54:29.612Z,1006.038
2023-08-15T00:54:59.612Z,1006.04
2023-08-15T00:55:29.612Z,1006.045
2023-08-15T00:55:59.616Z,1006.039
2023-08-15T00:56:29.637Z,1006.034
2023-08-15T00:56:59.623Z,1006.036
2023-08-15T00:57:29.622Z,1006.026
2023-08-15T00:57:59.623Z,1006.019
2023-08-15T00:58:29.624Z,1005.997
2023-08-15T00:58:59.617Z,1005.987
2023-08-15T00:59:29.640Z,1005.98
2023-08-15T00:59:59.634Z,1005.977
2023-08-15T01:00:29.616Z,1005.974
2023-08-15T01:00:59.616Z,1005.974
2023-08-15T01:01:29.682Z,1005.981
2023-08-15T01:01:59.673Z,1005.985
2023-08-15T01:02:29.692Z,1005.993
2023-08-15T01:02:59.722Z,1005.982
2023-08-15T01:03:29.713Z,1005.994
2023-08-15T01:03:59.650Z,1005.999
2023-08-15T01:04:29.620Z,1006.003
2023-08-15T01:04:59.625Z,1006.012
2023-08-15T01:05:29.631Z,1006.01
2023-08-15T01:05:59.630Z,1006.007
2023-08-15T01:06:29.626Z,1005.991
2023-08-15T01:06:59.621Z,1005.985
2023-08-15T01:07:29.619Z,1005.989
2023-08-15T01:07:59.622Z,1005.978
2023-08-15T01:08:29.638Z,1005.974
2023-08-15T01:08:59.627Z,1005.968
2023-08-15T01:09:29.622Z,1005.955
2023-08-15T01:09:59.623Z,1005.948
2023-08-15T01:10:29.629Z,1005.93
2023-08-15T01:10:59.621Z,1005.924
2023-08-15T01:11:29.624Z,1005.918
2023-08-15T01:11:59.622Z,1005.922
2023-08-15T01:12:29.625Z,1005.914
2023-08-15T01:12:59.625Z,1005.91
2023-08-15T01:13:29.625Z,1005.909
2023-08-15T01:13:59.627Z,1005.904
2023-08-15T01:14:29.623Z,1005.904
2023-08-15T01:14:59.622Z,1005.897
2023-08-15T01:15:29.626Z,1005.888
2023-08-15T01:15:59.747Z,1005.871
2023-08-15T01:16:29.775Z,1005.86
2023-08-15T01:16:59.624Z,1005.843
2023-08-15T01:17:29.649Z,1005.84
2023-08-15T01:17:59.660Z,1005.84
2023-08-15T01:18:29.629Z,1005.825
2023-08-15T01:18:59.658Z,1005.817
2023-08-15T01:19:29.626Z,1005.825
2023-08-15T01:19:59.632Z,1005.815
2023-08-15T01:20:29.635Z,1005.823
2023-08-15T01:20:59.641Z,1005.829
2023-08-15T01:21:29.630Z,1005.836
2023-08-15T01:21:59.633Z,1005.839
2023-08-15T01:22:29.627Z,1005.851
2023-08-15T01:22:59.628Z,1005.853
2023-08-15T01:23:29.632Z,1005.855
2023-08-15T01:23:59.637Z,1005.851
2023-08-15T01:24:29.631Z,1005.858
2023-08-15T01:24:59.626Z,1005.853
2023-08-15T01:25:29.650Z,1005.858
2023-08-15T01:25:59.649Z,1005.861
2023-08-15T01:26:29.626Z,1005.858
2023-08-15T01:26:59.644Z,1005.862
2023-08-15T01:27:29.630Z,1005.856
2023-08-15T01:27:59.632Z,1005.856
2023-08-15T01:28:29.637Z,1005.852
2023-08-15T01:28:59.635Z,1005.852
2023-08-15T01:29:29.641Z,1005.842
2023-08-15T01:29:59.648Z,1005.839
2023-08-15T01:30:29.640Z,1005.837
2023-08-15T01:30:59.632Z,1005.831
2023-08-15T01:31:29.668Z,1005.835
2023-08-15T01:31:59.718Z,1005.838
2023-08-15T01:32:29.652Z,1005.836
2023-08-15T01:32:59.684Z,1005.834
2023-08-15T01:33:29.628Z,1005.834
2023-08-15T01:33:59.631Z,1005.829
2023-08-15T01:34:29.636Z,1005.825
2023-08-15T01:34:59.640Z,1005.81
2023-08-15T01:35:29.640Z,1005.801
2023-08-15T01:35:59.642Z,1005.786
2023-08-15T01:36:29.635Z,1005.781
2023-08-15T01:36:59.644Z,1005.761
2023-08-15T01:37:29.640Z,1005.747
2023-08-15T01:37:59.645Z,1005.722
2023-08-15T01:38:29.644Z,1005.717
2023-08-15T01:38:59.632Z,1005.7
2023-08-15T01:39:29.635Z,1005.695
2023-08-15T01:39:59.641Z,1005.693
2023-08-15T01:40:29.646Z,1005.713
2023-08-15T01:40:59.637Z,1005.727
2023-08-15T01:41:29.636Z,1005.739
2023-08-15T01:41:59.638Z,1005.749
2023-08-15T01:42:29.642Z,1005.758
2023-08-15T01:42:59.638Z,1005.758
2023-08-15T01:43:29.635Z,1005.763
2023-08-15T01:43:59.640Z,1005.769
2023-08-15T01:44:29.640Z,1005.758
2023-08-15T01:44:59.639Z,1005.753
2023-08-15T01:45:29.640Z,1005.756
2023-08-15T01:45:59.683Z,1005.759
2023-08-15T01:46:29.644Z,1005.763
2023-08-15T01:46:59.643Z,1005.752
2023-08-15T01:47:29.696Z,1005.77
2023-08-15T01:47:59.673Z,1005.769
2023-08-15T01:48:29.640Z,1005.79
2023-08-15T01:48:59.639Z,1005.801
2023-08-15T01:49:29.638Z,1005.813
2023-08-15T01:49:59.639Z,1005.824
2023-08-15T01:50:29.646Z,1005.835
2023-08-15T01:50:59.646Z,1005.842
2023-08-15T01:51:29.663Z,1005.839
2023-08-15T01:51:59.665Z,1005.837
2023-08-15T01:52:29.718Z,1005.825
2023-08-15T01:52:59.647Z,1005.814
2023-08-15T01:53:29.645Z,1005.801
2023-08-15T01:53:59.642Z,1005.789
2023-08-15T01:54:29.642Z,1005.772
2023-08-15T01:54:59.647Z,1005.753
2023-08-15T01:55:29.643Z,1005.75
2023-08-15T01:55:59.643Z,1005.756
2023-08-15T01:56:29.643Z,1005.76
2023-08-15T01:56:59.646Z,1005.75
2023-08-15T01:57:29.659Z,1005.754
2023-08-15T01:57:59.651Z,1005.747
2023-08-15T01:58:29.645Z,1005.734
2023-08-15T01:58:59.645Z,1005.723
2023-08-15T01:59:29.643Z,1005.717
2023-08-15T01:59:59.643Z,1005.717
2023-08-15T02:00:29.646Z,1005.711
2023-08-15T02:00:59.711Z,1005.707
2023-08-15T02:01:29.679Z,1005.72
2023-08-15T02:01:59.648Z,1005.714
2023-08-15T02:02:29.676Z,1005.723
2023-08-15T02:02:59.727Z,1005.717
2023-08-15T02:03:29.648Z,1005.721
2023-08-15T02:03:59.646Z,1005.734
2023-08-15T02:04:29.645Z,1005.745
2023-08-15T02:04:59.705Z,1005.761
2023-08-15T02:05:29.702Z,1005.767
2023-08-15T02:05:59.692Z,1005.775
2023-08-15T02:06:29.654Z,1005.781
2023-08-15T02:06:59.648Z,1005.783
2023-08-15T02:07:29.686Z,1005.783
2023-08-15T02:07:59.667Z,1005.778
2023-08-15T02:08:29.658Z,1005.788
2023-08-15T02:08:59.660Z,1005.793
2023-08-15T02:09:29.648Z,1005.789
2023-08-15T02:09:59.648Z,1005.793
2023-08-15T02:10:29.652Z,1005.785
2023-08-15T02:10:59.728Z,1005.77
2023-08-15T02:11:29.646Z,1005.769
2023-08-15T02:11:59.664Z,1005.767
2023-08-15T02:12:29.657Z,1005.773
2023-08-15T02:12:59.654Z,1005.78
2023-08-15T02:13:29.649Z,1005.78
2023-08-15T02:13:59.666Z,1005.774
2023-08-15T02:14:29.654Z,1005.77
2023-08-15T02:14:59.650Z,1005.767
2023-08-15T02:15:29.709Z,1005.766
2023-08-15T02:15:59.666Z,1005.757
2023-08-15T02:16:29.651Z,1005.762
2023-08-15T02:16:59.676Z,1005.778
2023-08-15T02:17:29.659Z,1005.775
2023-08-15T02:17:59.778Z,1005.777
2023-08-15T02:18:29.662Z,1005.772
2023-08-15T02:18:59.654Z,1005.78
2023-08-15T02:19:29.663Z,1005.79
2023-08-15T02:19:59.677Z,1005.789
2023-08-15T02:20:29.651Z,1005.78
2023-08-15T02:20:59.663Z,1005.777
2023-08-15T02:21:29.660Z,1005.78
2023-08-15T02:21:59.667Z,1005.766
2023-08-15T02:22:29.657Z,1005.771
2023-08-15T02:22:59.662Z,1005.768
2023-08-15T02:23:29.658Z,1005.766
2023-08-15T02:23:59.654Z,1005.767
2023-08-15T02:24:29.656Z,1005.773
2023-08-15T02:24:59.658Z,1005.777
2023-08-15T02:25:29.665Z,1005.779
2023-08-15T02:25:59.663Z,1005.773
2023-08-15T02:26:29.665Z,1005.775
2023-08-15T02:26:59.660Z,1005.781
2023-08-15T02:27:29.663Z,1005.775
2023-08-15T02:27:59.670Z,1005.774
2023-08-15T02:28:29.669Z,1005.772
2023-08-15T02:28:59.659Z,1005.768
2023-08-15T02:29:29.660Z,1005.766
2023-08-15T02:29:59.663Z,1005.761
2023-08-15T02:30:29.666Z,1005.754
2023-08-15T02:30:59.728Z,1005.756
2023-08-15T02:31:29.668Z,1005.751
2023-08-15T02:31:59.664Z,1005.751
2023-08-15T02:32:29.694Z,1005.753
2023-08-15T02:32:59.694Z,1005.764
2023-08-15T02:33:29.665Z,1005.766
2023-08-15T02:33:59.662Z,1005.777
2023-08-15T02:34:29.661Z,1005.791
2023-08-15T02:34:59.667Z,1005.805
2023-08-15T02:35:29.670Z,1005.821
2023-08-15T02:35:59.666Z,1005.81
2023-08-15T02:36:29.661Z,1005.828
2023-08-15T02:36:59.680Z,1005.832
2023-08-15T02:37:29.679Z,1005.817
2023-08-15T02:37:59.671Z,1005.826
2023-08-15T02:38:29.668Z,1005.83
2023-08-15T02:38:59.677Z,1005.821
2023-08-15T02:39:29.661Z,1005.824
2023-08-15T02:39:59.670Z,1005.828
2023-08-15T02:40:29.669Z,1005.827
2023-08-15T02:40:59.673Z,1005.827
2023-08-15T02:41:29.670Z,1005.827
2023-08-15T02:41:59.668Z,1005.825
2023-08-15T02:42:29.661Z,1005.83
2023-08-15T02:42:59.673Z,1005.825
2023-08-15T02:43:29.665Z,1005.823
2023-08-15T02:43:59.674Z,1005.822
2023-08-15T02:44:29.671Z,1005.823
2023-08-15T02:44:59.673Z,1005.821
2023-08-15T02:45:29.662Z,1005.819
2023-08-15T02:45:59.676Z,1005.821
2023-08-15T02:46:29.829Z,1005.805
2023-08-15T02:46:59.679Z,1005.809
2023-08-15T02:47:29.675Z,1005.8
2023-08-15T02:47:59.751Z,1005.804
2023-08-15T02:48:29.672Z,1005.809
2023-08-15T02:48:59.669Z,1005.801
2023-08-15T02:49:29.668Z,1005.814
2023-08-15T02:49:59.671Z,1005.819
2023-08-15T02:50:29.682Z,1005.811
2023-08-15T02:50:59.676Z,1005.813
2023-08-15T02:51:29.671Z,1005.81
2023-08-15T02:51:59.686Z,1005.817
2023-08-15T02:52:29.670Z,1005.817
2023-08-15T02:52:59.678Z,1005.816
2023-08-15T02:53:29.672Z,1005.818
2023-08-15T02:53:59.673Z,1005.817
2023-08-15T02:54:29.682Z,1005.813
2023-08-15T02:54:59.687Z,1005.807
2023-08-15T02:55:29.670Z,1005.781
2023-08-15T02:55:59.688Z,1005.766
2023-08-15T02:56:29.670Z,1005.749
2023-08-15T02:56:59.678Z,1005.734
2023-08-15T02:57:29.679Z,1005.727
2023-08-15T02:57:59.684Z,1005.721
2023-08-15T02:58:29.671Z,1005.711
2023-08-15T02:58:59.686Z,1005.711
2023-08-15T02:59:29.674Z,1005.71
2023-08-15T02:59:59.675Z,1005.707
2023-08-15T03:00:29.671Z,1005.718
2023-08-15T03:00:59.720Z,1005.718
2023-08-15T03:01:29.677Z,1005.719
2023-08-15T03:01:59.712Z,1005.711
2023-08-15T03:02:29.763Z,1005.711
2023-08-15T03:02:59.730Z,1005.715
2023-08-15T03:03:29.670Z,1005.716
2023-08-15T03:03:59.690Z,1005.722
2023-08-15T03:04:29.678Z,1005.725
2023-08-15T03:04:59.679Z,1005.737
2023-08-15T03:05:29.679Z,1005.739
2023-08-15T03:05:59.682Z,1005.755
2023-08-15T03:06:29.674Z,1005.758
2023-08-15T03:06:59.688Z,1005.775
2023-08-15T03:07:29.686Z,1005.788
2023-08-15T03:07:59.690Z,1005.801
2023-08-15T03:08:29.686Z,1005.804
2023-08-15T03:08:59.680Z,1005.813
2023-08-15T03:09:29.688Z,1005.819
2023-08-15T03:09:59.686Z,1005.81
2023-08-15T03:10:29.690Z,1005.812
2023-08-15T03:10:59.691Z,1005.802
2023-08-15T03:11:29.678Z,1005.802
2023-08-15T03:11:59.691Z,1005.799
2023-08-15T03:12:29.691Z,1005.803
2023-08-15T03:12:59.690Z,1005.801
2023-08-15T03:13:29.681Z,1005.802
2023-08-15T03:13:59.682Z,1005.798
2023-08-15T03:14:29.695Z,1005.797
2023-08-15T03:14:59.676Z,1005.802
2023-08-15T03:15:29.679Z,1005.796
2023-08-15T03:15:59.683Z,1005.791
2023-08-15T03:16:29.719Z,1005.787
2023-08-15T03:16:59.688Z,1005.781
2023-08-15T03:17:29.720Z,1005.778
2023-08-15T03:17:59.771Z,1005.781
2023-08-15T03:18:29.687Z,1005.779
2023-08-15T03:18:59.686Z,1005.781
2023-08-15T03:19:29.680Z,1005.777
2023-08-15T03:19:59.691Z,1005.773
2023-08-15T03:20:29.684Z,1005.773
2023-08-15T03:20:59.687Z,1005.765
2023-08-15T03:21:29.688Z,1005.78
2023-08-15T03:21:59.686Z,1005.797
2023-08-15T03:22:29.680Z,1005.811
2023-08-15T03:22:59.690Z,1005.814
2023-08-15T03:23:29.692Z,1005.812
2023-08-15T03:23:59.698Z,1005.805
2023-08-15T03:24:29.686Z,1005.784
2023-08-15T03:24:59.691Z,1005.772
2023-08-15T03:25:29.693Z,1005.767
2023-08-15T03:25:59.695Z,1005.769
2023-08-15T03:26:29.685Z,1005.759
2023-08-15T03:27:02.189Z,1005.75
2023-08-15T03:27:30.845Z,1005.756
2023-08-15T03:27:59.716Z,1005.741
2023-08-15T03:28:29.700Z,1005.737
2023-08-15T03:28:59.698Z,1005.743
2023-08-15T03:29:29.695Z,1005.743
2023-08-15T03:29:59.693Z,1005.747
2023-08-15T03:30:29.698Z,1005.751
2023-08-15T03:30:59.712Z,1005.76
2023-08-15T03:31:29.748Z,1005.767
2023-08-15T03:31:59.701Z,1005.781
2023-08-15T03:32:29.706Z,1005.784
2023-08-15T03:32:59.722Z,1005.788
2023-08-15T03:33:29.687Z,1005.801
2023-08-15T03:33:59.693Z,1005.81
2023-08-15T03:34:29.689Z,1005.818
2023-08-15T03:34:59.694Z,1005.821
2023-08-15T03:35:29.688Z,1005.825
2023-08-15T03:35:59.698Z,1005.838
2023-08-15T03:36:29.694Z,1005.852
2023-08-15T03:36:59.692Z,1005.863
2023-08-15T03:37:29.692Z,1005.879
2023-08-15T03:37:59.689Z,1005.893
2023-08-15T03:38:29.695Z,1005.903
2023-08-15T03:38:59.697Z,1005.911
2023-08-15T03:39:29.698Z,1005.912
2023-08-15T03:39:59.705Z,1005.918
2023-08-15T03:40:29.706Z,1005.92
2023-08-15T03:40:59.700Z,1005.916
2023-08-15T03:41:29.694Z,1005.905
2023-08-15T03:41:59.697Z,1005.894
2023-08-15T03:42:29.692Z,1005.881
2023-08-15T03:42:59.698Z,1005.869
2023-08-15T03:43:29.697Z,1005.865
2023-08-15T03:43:59.693Z,1005.861
2023-08-15T03:44:29.695Z,1005.857
2023-08-15T03:44:59.707Z,1005.857
2023-08-15T03:45:29.725Z,1005.862
2023-08-15T03:45:59.806Z,1005.862
2023-08-15T03:46:29.743Z,1005.867
2023-08-15T03:46:59.776Z,1005.866
2023-08-15T03:47:29.725Z,1005.86
2023-08-15T03:47:59.726Z,1005.85
2023-08-15T03:48:29.694Z,1005.842
2023-08-15T03:48:59.709Z,1005.835
2023-08-15T03:49:29.699Z,1005.825
2023-08-15T03:49:59.701Z,1005.829
2023-08-15T03:50:29.698Z,1005.835
2023-08-15T03:50:59.702Z,1005.851
2023-08-15T03:51:45.508Z,1005.851
2023-08-15T03:52:00.851Z,1005.835
2023-08-15T03:52:29.694Z,1005.835
2023-08-15T03:52:59.705Z,1005.843
2023-08-15T03:53:29.694Z,1005.851
2023-08-15T03:53:59.704Z,1005.859
2023-08-15T03:54:29.698Z,1005.864
2023-08-15T03:54:59.708Z,1005.869
2023-08-15T03:55:29.710Z,1005.87
2023-08-15T03:55:59.716Z,1005.871
2023-08-15T03:56:29.707Z,1005.871
2023-08-15T03:56:59.714Z,1005.863
2023-08-15T03:57:29.702Z,1005.864
2023-08-15T03:57:59.708Z,1005.861
2023-08-15T03:58:29.706Z,1005.857
2023-08-15T03:58:59.702Z,1005.86
2023-08-15T03:59:29.721Z,1005.856
2023-08-15T03:59:59.702Z,1005.853
2023-08-15T04:00:29.699Z,1005.856
2023-08-15T04:00:59.718Z,1005.855
2023-08-15T04:01:29.728Z,1005.856
2023-08-15T04:01:59.746Z,1005.854
2023-08-15T04:02:29.764Z,1005.845
2023-08-15T04:02:59.732Z,1005.837
2023-08-15T04:03:29.740Z,1005.814
2023-08-15T04:03:59.736Z,1005.806
2023-08-15T04:04:29.703Z,1005.789
2023-08-15T04:04:59.704Z,1005.764
2023-08-15T04:05:29.706Z,1005.75
2023-08-15T04:05:59.725Z,1005.743
2023-08-15T04:06:29.702Z,1005.734
2023-08-15T04:06:59.708Z,1005.732
2023-08-15T04:07:29.702Z,1005.717
2023-08-15T04:07:59.704Z,1005.723
2023-08-15T04:08:29.699Z,1005.722
2023-08-15T04:08:59.723Z,1005.717
2023-08-15T04:09:29.702Z,1005.731
2023-08-15T04:09:59.711Z,1005.746
2023-08-15T04:10:29.715Z,1005.754
2023-08-15T04:10:59.714Z,1005.758
2023-08-15T04:11:29.711Z,1005.745
2023-08-15T04:11:59.718Z,1005.736
2023-08-15T04:12:29.704Z,1005.715
2023-08-15T04:12:59.726Z,1005.682
2023-08-15T04:13:29.707Z,1005.649
2023-08-15T04:13:59.710Z,1005.623
2023-08-15T04:14:29.718Z,1005.597
2023-08-15T04:14:59.711Z,1005.578
2023-08-15T04:15:29.704Z,1005.574
2023-08-15T04:15:59.785Z,1005.571
2023-08-15T04:16:29.798Z,1005.558
2023-08-15T04:16:59.707Z,1005.545
2023-08-15T04:17:29.734Z,1005.548
2023-08-15T04:17:59.752Z,1005.54
2023-08-15T04:18:29.713Z,1005.539
2023-08-15T04:18:59.719Z,1005.538
2023-08-15T04:19:29.705Z,1005.541
2023-08-15T04:19:59.721Z,1005.549
2023-08-15T04:20:29.706Z,1005.56
2023-08-15T04:20:59.725Z,1005.579
2023-08-15T04:21:29.714Z,1005.582
2023-08-15T04:21:59.715Z,1005.591
2023-08-15T04:22:29.711Z,1005.608
2023-08-15T04:22:59.711Z,1005.631
2023-08-15T04:23:29.717Z,1005.661
2023-08-15T04:23:59.716Z,1005.672
2023-08-15T04:24:29.734Z,1005.697
2023-08-15T04:24:59.730Z,1005.717
2023-08-15T04:25:31.752Z,1005.719
2023-08-15T04:25:59.718Z,1005.707
2023-08-15T04:26:29.721Z,1005.725
2023-08-15T04:26:59.723Z,1005.731
2023-08-15T04:27:29.724Z,1005.736
2023-08-15T04:27:59.720Z,1005.735
2023-08-15T04:28:29.738Z,1005.726
2023-08-15T04:28:59.740Z,1005.717
2023-08-15T04:29:29.712Z,1005.698
2023-08-15T04:29:59.752Z,1005.683
2023-08-15T04:30:29.710Z,1005.668
2023-08-15T04:30:59.741Z,1005.674
2023-08-15T04:31:29.756Z,1005.661
2023-08-15T04:31:59.774Z,1005.645
2023-08-15T04:32:29.766Z,1005.629
2023-08-15T04:32:59.882Z,1005.613
2023-08-15T04:33:29.722Z,1005.586
2023-08-15T04:33:59.718Z,1005.557
2023-08-15T04:34:29.712Z,1005.535
2023-08-15T04:34:59.730Z,1005.512
2023-08-15T04:35:29.725Z,1005.514
2023-08-15T04:35:59.725Z,1005.523
2023-08-15T04:36:29.745Z,1005.54
2023-08-15T04:36:59.723Z,1005.557
2023-08-15T04:37:29.719Z,1005.578
2023-08-15T04:37:59.719Z,1005.598
2023-08-15T04:38:29.718Z,1005.635
2023-08-15T04:38:59.736Z,1005.661
2023-08-15T04:39:29.718Z,1005.699
2023-08-15T04:39:59.758Z,1005.723
2023-08-15T04:40:29.786Z,1005.734
2023-08-15T04:40:59.726Z,1005.743
2023-08-15T04:41:29.719Z,1005.77
2023-08-15T04:41:59.726Z,1005.795
2023-08-15T04:42:29.720Z,1005.819
2023-08-15T04:42:59.728Z,1005.819
2023-08-15T04:43:29.723Z,1005.805
2023-08-15T04:43:59.722Z,1005.785
2023-08-15T04:44:29.728Z,1005.768
2023-08-15T04:44:59.721Z,1005.755
2023-08-15T04:45:29.719Z,1005.725
2023-08-15T04:45:59.755Z,1005.712
2023-08-15T04:46:29.775Z,1005.71
2023-08-15T04:46:59.723Z,1005.701
2023-08-15T04:47:29.720Z,1005.7
2023-08-15T04:47:59.786Z,1005.701
2023-08-15T04:48:29.720Z,1005.702
2023-08-15T04:48:59.722Z,1005.696
2023-08-15T04:49:29.725Z,1005.673
2023-08-15T04:49:59.723Z,1005.657
2023-08-15T04:50:29.741Z,1005.638
2023-08-15T04:50:59.720Z,1005.618
2023-08-15T04:51:29.727Z,1005.607
2023-08-15T04:51:59.726Z,1005.597
2023-08-15T04:52:29.722Z,1005.593
2023-08-15T04:52:59.727Z,1005.586
2023-08-15T04:53:29.719Z,1005.597
2023-08-15T04:53:59.723Z,1005.605
2023-08-15T04:54:29.728Z,1005.635
2023-08-15T04:54:59.722Z,1005.65
2023-08-15T04:55:29.725Z,1005.646
2023-08-15T04:55:59.725Z,1005.638
2023-08-15T04:56:29.724Z,1005.63
2023-08-15T04:56:59.729Z,1005.624
2023-08-15T04:57:29.733Z,1005.638
2023-08-15T04:57:59.729Z,1005.64
2023-08-15T04:58:29.732Z,1005.651
2023-08-15T04:58:59.732Z,1005.665
2023-08-15T04:59:29.729Z,1005.655
2023-08-15T04:59:59.727Z,1005.647
2023-08-15T05:00:32.294Z,1005.649
2023-08-15T05:01:00.936Z,1005.639
2023-08-15T05:01:29.797Z,1005.623
2023-08-15T05:01:59.734Z,1005.619
2023-08-15T05:02:29.758Z,1005.615
2023-08-15T05:02:59.745Z,1005.6
2023-08-15T05:03:29.748Z,1005.588
2023-08-15T05:03:59.745Z,1005.571
2023-08-15T05:04:29.735Z,1005.555
2023-08-15T05:04:59.743Z,1005.548
2023-08-15T05:05:29.857Z,1005.539
2023-08-15T05:05:59.735Z,1005.537
2023-08-15T05:06:29.731Z,1005.529
2023-08-15T05:06:59.739Z,1005.527
2023-08-15T05:07:29.732Z,1005.527
2023-08-15T05:07:59.750Z,1005.531
2023-08-15T05:08:29.729Z,1005.547
2023-08-15T05:08:59.738Z,1005.536
2023-08-15T05:09:29.734Z,1005.554
2023-08-15T05:09:59.737Z,1005.575
2023-08-15T05:10:29.758Z,1005.59
2023-08-15T05:10:59.736Z,1005.589
2023-08-15T05:11:29.739Z,1005.593
2023-08-15T05:11:59.742Z,1005.603
2023-08-15T05:12:29.748Z,1005.591
2023-08-15T05:12:59.745Z,1005.594
2023-08-15T05:13:29.736Z,1005.576
2023-08-15T05:13:59.752Z,1005.575
2023-08-15T05:14:29.735Z,1005.56
2023-08-15T05:14:59.755Z,1005.546
2023-08-15T05:15:29.781Z,1005.529
2023-08-15T05:15:59.781Z,1005.511
2023-08-15T05:16:29.747Z,1005.49
2023-08-15T05:16:59.738Z,1005.486
2023-08-15T05:17:31.842Z,1005.472
2023-08-15T05:17:59.900Z,1005.457
2023-08-15T05:18:29.744Z,1005.446
2023-08-15T05:18:59.741Z,1005.448
2023-08-15T05:19:29.738Z,1005.44
2023-08-15T05:19:59.743Z,1005.43
2023-08-15T05:20:29.771Z,1005.425
2023-08-15T05:20:59.749Z,1005.426
2023-08-15T05:21:29.787Z,1005.427
2023-08-15T05:21:59.806Z,1005.43
2023-08-15T05:22:29.738Z,1005.425
2023-08-15T05:22:59.742Z,1005.423
2023-08-15T05:23:29.744Z,1005.426
2023-08-15T05:23:59.765Z,1005.442
2023-08-15T05:24:29.771Z,1005.428
2023-08-15T05:24:59.759Z,1005.425
2023-08-15T05:25:29.744Z,1005.411
2023-08-15T05:25:59.763Z,1005.41
2023-08-15T05:26:29.745Z,1005.401
2023-08-15T05:26:59.755Z,1005.391
2023-08-15T05:27:29.746Z,1005.381
2023-08-15T05:27:59.752Z,1005.363
2023-08-15T05:28:29.752Z,1005.358
2023-08-15T05:28:59.754Z,1005.367
2023-08-15T05:29:29.751Z,1005.362
2023-08-15T05:29:59.760Z,1005.356
2023-08-15T05:30:29.748Z,1005.346
2023-08-15T05:30:59.759Z,1005.342
2023-08-15T05:31:29.776Z,1005.343
2023-08-15T05:31:59.755Z,1005.353
2023-08-15T05:32:29.768Z,1005.347
2023-08-15T05:32:59.806Z,1005.331
2023-08-15T05:33:29.744Z,1005.33
2023-08-15T05:33:59.781Z,1005.323
2023-08-15T05:34:29.749Z,1005.304
2023-08-15T05:34:59.768Z,1005.294
2023-08-15T05:35:29.750Z,1005.274
2023-08-15T05:35:59.754Z,1005.263
2023-08-15T05:36:29.752Z,1005.246
2023-08-15T05:36:59.748Z,1005.235
2023-08-15T05:37:29.753Z,1005.23
2023-08-15T05:37:59.749Z,1005.231
2023-08-15T05:38:29.755Z,1005.211
2023-08-15T05:38:59.747Z,1005.223
2023-08-15T05:39:29.749Z,1005.221
2023-08-15T05:40:01.279Z,1005.213
2023-08-15T05:40:31.165Z,1005.21
2023-08-15T05:40:59.760Z,1005.177
2023-08-15T05:41:29.748Z,1005.175
2023-08-15T05:41:59.751Z,1005.169
2023-08-15T05:42:29.746Z,1005.148
2023-08-15T05:42:59.772Z,1005.134
2023-08-15T05:43:29.795Z,1005.107
2023-08-15T05:43:59.757Z,1005.097
2023-08-15T05:44:29.758Z,1005.077
2023-08-15T05:44:59.764Z,1005.053
2023-08-15T05:45:29.763Z,1005.029
2023-08-15T05:45:59.752Z,1005.013
2023-08-15T05:46:29.793Z,1005.001
2023-08-15T05:46:59.816Z,1004.978
2023-08-15T05:47:29.779Z,1004.957
2023-08-15T05:47:59.784Z,1004.934
2023-08-15T05:48:29.756Z,1004.919
2023-08-15T05:48:59.755Z,1004.929
2023-08-15T05:49:29.764Z,1004.923
2023-08-15T05:49:59.755Z,1004.929
2023-08-15T05:50:29.779Z,1004.929
2023-08-15T05:50:59.765Z,1004.936
2023-08-15T05:51:29.756Z,1004.94
2023-08-15T05:51:59.753Z,1004.935
2023-08-15T05:52:29.753Z,1004.938
2023-08-15T05:52:59.755Z,1004.946
2023-08-15T05:53:29.758Z,1004.959